x

East Lake Ontario - 20nm North Northeast Of Rochester, Ny (45012) Wave Buoy

11:50pm - Sun 22nd Oct 2017 All times are CDT. -5 hours from GMT.

  • Sig Wave height 2.0ft
  • Swell Direction
  • Peak Period 3s
  • Average Period 3s
  • Wind
    18mph, 20mph gusts
  • Sea Temp 61°f
  • Air Temp 64°f
  • Sea Pressure 1020.5mb
  • East Lake Ontario  - 20nm North Northeast Of Rochester, Ny
  • East Lake Ontario  - 20nm North Northeast Of Rochester, Ny

More Historic Weather Station data

Upgrade to MSW Pro to gain access to the past 30 days of data for over 8000 Wavebouys and Weather Stations around the globe.

Join

Comparision Forecast

View Surf forecast
   
Sun 10/22 11:50pm 2ft 3s 3s 18 20 mph 1020.5mb 61f 64f
10:50pm 1.6ft 3s 3s 18 20 mph 1020.9mb 61f 64f
9:50pm 1.3ft 3s 3s 18 20 mph 1021.4mb 61f 64f
8:50pm 1ft 3s 3s 16 18 mph 1021.8mb 61f 65f
7:50pm 0.7ft  -  3s 16 16 mph 1021.7mb 61f 64f
6:50pm 0.3ft  -  3s 13 13 mph 1021.8mb 61f 65f
5:50pm  -   -   -  11 11 mph 1022mb 61f 64f
4:50pm 0.3ft  -  3s 11 11 mph 1021.9mb 61f 63f
3:50pm 0.3ft  -  3s 11 11 mph 1022.4mb 61f 64f
2:50pm 0.3ft  -  3s 9 11 mph 1023mb 61f 63f
1:50pm 0.7ft  -  3s 9 9 mph 1023.7mb 61f 62f
12:50pm 0.7ft  -  3s 7 7 mph 1024.3mb 61f 61f
11:50am 1ft 3s 3s 4 7 mph 1025mb 61f 61f
10:50am 0.7ft  -  3s 7 9 mph 1025mb 61f 61f
9:50am 1ft 3s 3s 9 11 mph 1025.1mb 60f 60f
8:50am 0.7ft  -  3s 9 11 mph 1025.2mb 60f 60f
7:50am 0.7ft  -  3s 9 11 mph 1025.6mb 60f 60f
6:50am 0.7ft  -  3s 7 9 mph 1025.4mb 60f 60f
5:50am 0.7ft  -  3s 7 9 mph 1025.6mb 60f 60f
4:50am 0.7ft  -  3s 4 7 mph 1025.5mb 60f 60f
3:50am 0.7ft  -  3s 7 7 mph 1025mb 60f 61f
2:50am 0.7ft  -  3s 11 11 mph 1024.4mb 60f 61f
1:50am 0.3ft  -  2s 11 11 mph 1024.2mb 61f 61f
12:50am 0.3ft  -  2s 9 9 mph 1024.3mb 61f 61f
Sat 10/21 11:50pm 0.3ft  -  3s 9 11 mph 1024.1mb 60f 62f
10:50pm 0.3ft  -  3s 11 11 mph 1023.9mb 60f 62f
9:50pm 0.3ft  -  3s 11 11 mph 1024mb 60f 62f
8:50pm 0.3ft  -   -  9 11 mph 1024.2mb 60f 63f
7:50pm 0.3ft  -  3s 9 9 mph 1024.3mb 60f 62f
6:50pm 0.3ft  -  3s 7 9 mph 1024.4mb 60f 63f
5:50pm 0.3ft  -  3s 7 9 mph 1024.3mb 60f 63f
4:50pm 0.3ft  -  3s 4 4 mph 1024.3mb 61f 62f
3:50pm 0.3ft  -  3s 4 4 mph 1024.4mb 61f 62f
2:50pm 0.3ft  -  3s 4 7 mph 1024.3mb 61f 62f
1:50pm 0.7ft  -  3s 4 4 mph 1024.4mb 61f 62f
12:50pm 0.7ft  -  3s 4 4 mph 1024.9mb 60f 62f
11:50am 0.7ft  -  3s 4 7 mph 1025.2mb 60f 61f
10:50am 1ft 3s 3s 7 9 mph 1025.3mb 60f 60f
9:50am 1ft 3s 3s 11 11 mph 1025.3mb 60f 59f
8:50am 1.3ft 4s 3s 13 13 mph 1025.2mb 60f 59f
7:50am 1ft 4s 3s 11 11 mph 1025.1mb 59f 59f
6:50am 1ft 4s 3s 11 11 mph 1024.5mb 59f 59f
5:50am 1ft 3s 3s 11 13 mph 1024.1mb 60f 59f
4:50am 1.3ft 3s 3s 9 11 mph 1023.7mb 59f 59f
3:50am 1ft 3s 3s 11 13 mph 1023.4mb 60f 59f
2:50am 1ft 3s 3s 11 13 mph 1023mb 60f 60f
1:50am 0.7ft  -  3s 9 11 mph 1023.1mb 60f 60f
12:50am  -   -   -  9 11 mph 1022.9mb 60f 60f
Fri 10/20 11:50pm 0.7ft  -  3s 7 9 mph 1022.5mb 60f 60f
10:50pm 0.3ft  -  3s 9 9 mph 1021.9mb 60f 61f
9:50pm 0.7ft  -  3s 9 11 mph 1021.7mb 60f 61f
8:50pm 0.7ft  -  3s 7 11 mph 1021.5mb 60f 60f
7:50pm 0.7ft  -  3s 7 7 mph 1021.3mb 60f 60f
6:50pm 1ft 3s 3s 4 7 mph 1021.7mb 60f 60f
5:50pm 1ft 4s 3s 4 4 mph 1021.7mb 60f 60f
4:50pm 1.3ft 4s 3s 4 7 mph 1021.9mb 60f 60f
3:50pm 1.3ft 4s 3s 4 7 mph 1022.1mb 60f 61f
2:50pm 1.6ft 4s 3s 7 7 mph 1022.3mb 60f 60f
1:50pm 1.6ft 4s 3s 9 11 mph 1022.9mb 60f 60f
12:50pm 1.6ft 5s 4s 13 16 mph 1023.2mb 60f 59f
11:50am 1.6ft 5s 4s 11 13 mph 1023.6mb 60f 58f
10:50am 2ft 4s 4s 9 9 mph 1024.2mb 59f 58f
9:50am 2ft 5s 4s 11 11 mph 1024.4mb 59f 58f
8:50am 2.5ft 5s 4s 13 16 mph 1024.1mb 59f 57f
7:50am 2.5ft 5s 4s 16 18 mph 1023.5mb 59f 57f
6:50am 2.5ft 5s 4s 18 20 mph 1022.3mb 59f 58f
5:50am 2.5ft 5s 4s 18 22 mph 1021.3mb 59f 58f
4:50am 3ft 5s 4s 18 22 mph 1020.6mb 59f 59f
3:50am 3ft 5s 4s 18 20 mph 1019.8mb 59f 60f
2:50am 3.5ft 6s 4s 18 20 mph 1019.4mb 60f 60f
1:50am 4ft 5s 4s 18 20 mph 1019.2mb 60f 60f
12:50am 4ft 6s 4s 18 20 mph 1018.7mb 60f 60f
Thu 10/19 11:50pm 4.5ft 6s 5s 20 25 mph 1018.2mb 60f 61f
10:50pm 4.5ft 6s 4s 20 25 mph 1018mb 60f 61f
9:50pm 4.5ft 6s 5s 20 25 mph 1017.7mb 60f 61f
8:50pm 4.5ft 6s 5s 22 25 mph 1017.1mb 60f 62f
7:50pm 4.5ft 6s  -  20 25 mph 1016.8mb 60f 62f
6:50pm 4.5ft 6s 5s 20 27 mph 1016mb 61f 63f
5:50pm 4.5ft 6s 5s 18 22 mph 1015.2mb 61f 63f
4:50pm 3.5ft 5s 4s 18 20 mph 1014.6mb 61f 63f
3:50pm 3.5ft 5s 4s 18 20 mph 1014.2mb 61f 63f
2:50pm 3.5ft 5s 4s 20 25 mph 1013.6mb 61f 64f
1:50pm 3.5ft 5s 4s 18 25 mph 1014.2mb 61f 64f
12:50pm 3ft 5s 4s 16 18 mph 1015mb 61f 63f
11:50am 3ft 4s 4s 13 16 mph 1015.7mb 61f 62f
10:50am 3.5ft 4s 4s 18 20 mph 1016.1mb 61f 61f
9:50am 3.5ft 4s 4s 22 27 mph 1016.1mb 61f 61f
8:50am 3.5ft 4s 4s 22 27 mph 1016.4mb 61f 60f
7:50am 2.5ft 4s 3s 22 27 mph 1016.6mb 61f 60f
6:50am 2.5ft 4s 3s 20 25 mph 1017.2mb 61f 60f